Time;durP1;ratioP1;P1;durP2;ratioP2;P2;SDS_P1;SDS_P2;PMS_P1;PMS_P2;Temp;Humidity;BMP_temperature;BMP_pressure;BME280_temperature;BME280_humidity;BME280_pressure;Samples;Min_cycle;Max_cycle;Signal;HPM_P1;HPM_P2
2023/09/17 00:02:11;;;;;;;1.40;1.30;;;;;;;;;;5044589;28;58903;-70
2023/09/17 00:04:37;;;;;;;1.87;1.73;;;;;;;;;;5045542;28;58451;-69
2023/09/17 00:07:02;;;;;;;2.20;1.57;;;;;;;;;;5045085;27;58384;-73
2023/09/17 00:09:27;;;;;;;1.73;1.48;;;;;;;;;;5037338;28;58408;-76
2023/09/17 00:11:52;;;;;;;4.13;2.23;;;;;;;;;;5039864;28;58357;-75
2023/09/17 00:14:17;;;;;;;1.93;1.60;;;;;;;;;;5043873;28;58526;-73
2023/09/17 00:16:43;;;;;;;2.13;1.70;;;;;;;;;;5049591;28;60194;-74
2023/09/17 00:19:08;;;;;;;1.57;1.47;;;;;;;;;;5047709;28;58527;-76
2023/09/17 00:21:33;;;;;;;2.50;1.77;;;;;;;;;;5052198;28;58492;-80
2023/09/17 00:23:58;;;;;;;1.60;1.50;;;;;;;;;;5051178;27;58617;-79
2023/09/17 00:26:23;;;;;;;1.43;1.33;;;;;;;;;;5051231;28;58490;-77
2023/09/17 00:28:49;;;;;;;1.58;1.48;;;;;;;;;;5053366;28;58434;-79
2023/09/17 00:31:15;;;;;;;2.30;2.10;;;;;;;;;;5050030;28;58591;-78
2023/09/17 00:33:40;;;;;;;1.53;1.43;;;;;;;;;;5052200;28;58347;-76
2023/09/17 00:36:05;;;;;;;1.55;1.45;;;;;;;;;;5052770;28;60762;-76
2023/09/17 00:38:30;;;;;;;2.10;1.90;;;;;;;;;;5050231;28;58743;-75
2023/09/17 00:40:55;;;;;;;2.07;1.60;;;;;;;;;;5051204;28;58364;-76
2023/09/17 00:43:21;;;;;;;1.70;1.60;;;;;;;;;;5053044;28;58492;-76
2023/09/17 00:45:47;;;;;;;1.33;1.23;;;;;;;;;;5051477;28;58504;-81
2023/09/17 00:48:12;;;;;;;1.70;1.60;;;;;;;;;;5052475;28;58992;-78
2023/09/17 00:50:39;;;;;;;1.50;1.40;;;;;;;;;;5053113;28;59445;-80
2023/09/17 00:53:05;;;;;;;1.70;1.60;;;;;;;;;;5051181;27;58507;-74
2023/09/17 00:55:30;;;;;;;2.35;1.40;;;;;;;;;;5051049;28;60388;-82
2023/09/17 00:57:56;;;;;;;1.70;1.60;;;;;;;;;;5050492;28;58401;-84
2023/09/17 01:00:23;;;;;;;1.45;1.35;;;;;;;;;;5051080;28;58447;-77
2023/09/17 01:02:48;;;;;;;3.78;2.78;;;;;;;;;;5051599;28;59590;-78
2023/09/17 01:05:13;;;;;;;1.63;1.52;;;;;;;;;;5051318;28;58297;-81
2023/09/17 01:07:39;;;;;;;1.80;1.70;;;;;;;;;;5052428;28;58582;-80
2023/09/17 01:10:04;;;;;;;1.60;1.50;;;;;;;;;;5050601;28;58341;-78
2023/09/17 01:12:31;;;;;;;1.63;1.48;;;;;;;;;;5052625;28;58410;-82
2023/09/17 01:14:56;;;;;;;4.28;1.80;;;;;;;;;;5047536;28;60477;-80
2023/09/17 01:17:27;;;;;;;2.00;1.80;;;;;;;;;;5049089;27;59187;-75
2023/09/17 01:19:53;;;;;;;1.73;1.63;;;;;;;;;;5052041;28;58395;-81
2023/09/17 01:22:26;;;;;;;1.65;1.55;;;;;;;;;;5053886;28;59512;-75
2023/09/17 01:25:06;;;;;;;1.40;1.30;;;;;;;;;;5048380;28;58668;-75
2023/09/17 01:27:39;;;;;;;2.17;1.98;;;;;;;;;;5047562;28;59496;-75
2023/09/17 01:30:05;;;;;;;1.52;1.42;;;;;;;;;;5046426;28;59417;-75
2023/09/17 01:32:30;;;;;;;1.65;1.40;;;;;;;;;;5048042;28;58890;-74
2023/09/17 01:34:56;;;;;;;2.05;1.95;;;;;;;;;;5046322;28;58531;-74
2023/09/17 01:37:24;;;;;;;1.92;1.40;;;;;;;;;;5045966;28;59098;-74
2023/09/17 01:39:49;;;;;;;;;;;;;;;;;;5049180;28;58075;-77
2023/09/17 01:42:15;;;;;;;1.52;1.42;;;;;;;;;;5048890;28;58927;-75
2023/09/17 01:44:40;;;;;;;1.63;1.52;;;;;;;;;;5046603;28;57880;-73
2023/09/17 01:47:06;;;;;;;1.47;1.37;;;;;;;;;;5045334;28;58474;-75
2023/09/17 01:49:32;;;;;;;1.58;1.48;;;;;;;;;;5045399;28;58896;-74
2023/09/17 01:51:58;;;;;;;1.30;1.20;;;;;;;;;;5047324;28;58444;-77
2023/09/17 01:54:24;;;;;;;1.63;1.50;;;;;;;;;;5047758;28;58347;-76
2023/09/17 01:56:49;;;;;;;1.58;1.48;;;;;;;;;;5047041;27;59131;-73
2023/09/17 01:59:14;;;;;;;1.00;1.00;;;;;;;;;;5051643;28;58201;-75
2023/09/17 02:01:40;;;;;;;1.30;1.20;;;;;;;;;;5049137;28;59402;-74
2023/09/17 02:04:05;;;;;;;1.33;1.23;;;;;;;;;;5061702;28;58530;-79
2023/09/17 02:06:30;;;;;;;1.43;1.33;;;;;;;;;;5059549;28;58229;-78
2023/09/17 02:08:55;;;;;;;1.63;1.42;;;;;;;;;;5053505;28;58422;-79
2023/09/17 02:11:20;;;;;;;1.70;1.60;;;;;;;;;;5058541;28;58322;-79
2023/09/17 02:13:46;;;;;;;1.27;1.17;;;;;;;;;;5061549;28;59563;-80
2023/09/17 02:16:11;;;;;;;2.58;1.15;;;;;;;;;;5058998;28;58404;-80
2023/09/17 02:18:36;;;;;;;2.27;1.40;;;;;;;;;;5057861;28;59336;-82
2023/09/17 02:21:01;;;;;;;1.27;1.17;;;;;;;;;;5074022;27;61225;-80
2023/09/17 02:23:26;;;;;;;1.70;1.50;;;;;;;;;;5058829;28;58277;-79
2023/09/17 02:25:52;;;;;;;1.30;1.20;;;;;;;;;;5055986;28;58359;-76
2023/09/17 02:28:17;;;;;;;1.53;1.43;;;;;;;;;;5047751;28;58603;-72
2023/09/17 02:30:42;;;;;;;2.28;1.92;;;;;;;;;;5047353;28;58660;-71
2023/09/17 02:33:10;;;;;;;1.55;1.38;;;;;;;;;;5049934;28;59690;-73
2023/09/17 02:35:35;;;;;;;1.40;1.30;;;;;;;;;;5045960;28;59101;-71
2023/09/17 02:38:00;;;;;;;2.10;1.63;;;;;;;;;;5046380;28;58437;-73
2023/09/17 02:40:25;;;;;;;1.40;1.30;;;;;;;;;;5047283;28;59661;-72
2023/09/17 02:42:50;;;;;;;1.73;1.63;;;;;;;;;;5048186;28;58442;-71
2023/09/17 02:45:16;;;;;;;1.73;1.63;;;;;;;;;;5047217;27;58327;-71
2023/09/17 02:47:41;;;;;;;1.50;1.40;;;;;;;;;;5046546;28;59691;-73
2023/09/17 02:50:06;;;;;;;1.97;1.73;;;;;;;;;;5048379;28;59801;-72
2023/09/17 02:52:31;;;;;;;1.73;1.63;;;;;;;;;;5049507;28;58573;-73
2023/09/17 02:54:57;;;;;;;1.47;1.37;;;;;;;;;;5048427;28;58995;-70
2023/09/17 02:57:22;;;;;;;1.80;1.30;;;;;;;;;;5047442;28;58572;-72
2023/09/17 02:59:47;;;;;;;1.47;1.37;;;;;;;;;;5046863;28;59598;-72
2023/09/17 03:02:13;;;;;;;1.90;1.63;;;;;;;;;;5047065;28;58491;-72
2023/09/17 03:04:38;;;;;;;1.73;1.63;;;;;;;;;;5047123;28;58438;-72
2023/09/17 03:07:04;;;;;;;1.33;1.02;;;;;;;;;;5045247;28;58545;-71
2023/09/17 03:09:29;;;;;;;1.90;1.48;;;;;;;;;;5045172;28;58439;-73
2023/09/17 03:11:54;;;;;;;1.47;1.37;;;;;;;;;;5046694;28;58477;-73
2023/09/17 03:14:20;;;;;;;2.20;1.90;;;;;;;;;;5046053;28;59053;-73
2023/09/17 03:16:45;;;;;;;1.40;1.30;;;;;;;;;;5045797;28;58349;-74
2023/09/17 03:19:10;;;;;;;1.90;1.80;;;;;;;;;;5046886;28;61841;-72
2023/09/17 03:21:40;;;;;;;1.50;1.40;;;;;;;;;;5046174;28;58586;-70
2023/09/17 03:24:05;;;;;;;1.50;1.40;;;;;;;;;;5051111;28;58411;-70
2023/09/17 03:26:31;;;;;;;2.40;1.67;;;;;;;;;;5045569;28;59790;-71
2023/09/17 03:28:56;;;;;;;1.85;1.75;;;;;;;;;;5045616;28;58334;-73
2023/09/17 03:31:21;;;;;;;1.90;1.80;;;;;;;;;;5048717;28;58436;-73
2023/09/17 03:33:46;;;;;;;1.80;1.70;;;;;;;;;;5047744;28;60793;-73
2023/09/17 03:36:11;;;;;;;2.23;2.03;;;;;;;;;;5045779;28;59229;-72
2023/09/17 03:38:37;;;;;;;1.75;1.63;;;;;;;;;;5045708;28;59370;-73
2023/09/17 03:41:02;;;;;;;1.80;1.70;;;;;;;;;;5062199;27;58555;-72
2023/09/17 03:43:29;;;;;;;2.00;1.90;;;;;;;;;;5048082;28;58359;-72
2023/09/17 03:45:54;;;;;;;2.10;1.90;;;;;;;;;;5046397;28;60622;-77
2023/09/17 03:48:20;;;;;;;2.20;2.00;;;;;;;;;;5047428;28;58647;-77
2023/09/17 03:50:45;;;;;;;1.98;1.88;;;;;;;;;;5043526;28;58442;-77
2023/09/17 03:53:12;;;;;;;2.43;2.23;;;;;;;;;;5041448;28;58544;-77
2023/09/17 03:55:37;;;;;;;2.22;2.10;;;;;;;;;;5041772;28;58624;-77
2023/09/17 03:58:03;;;;;;;2.33;2.13;;;;;;;;;;5039591;28;58815;-77
2023/09/17 04:00:29;;;;;;;1.80;1.70;;;;;;;;;;5041397;28;59092;-77
2023/09/17 04:02:54;;;;;;;2.38;2.17;;;;;;;;;;5043209;28;58507;-77
2023/09/17 04:05:21;;;;;;;1.90;1.80;;;;;;;;;;5042134;28;59438;-77
2023/09/17 04:07:46;;;;;;;2.53;2.33;;;;;;;;;;5042832;28;59586;-77
2023/09/17 04:10:12;;;;;;;2.38;2.20;;;;;;;;;;5042874;28;58461;-77
2023/09/17 04:12:38;;;;;;;2.22;1.95;;;;;;;;;;5041618;28;58884;-78
2023/09/17 04:15:08;;;;;;;1.88;1.77;;;;;;;;;;5040411;28;58516;-77
2023/09/17 04:17:33;;;;;;;1.88;1.77;;;;;;;;;;5041455;28;58473;-77
2023/09/17 04:19:58;;;;;;;1.87;1.77;;;;;;;;;;5042854;28;59311;-77
2023/09/17 04:22:23;;;;;;;1.80;1.70;;;;;;;;;;5044433;28;58493;-77
2023/09/17 04:24:49;;;;;;;1.70;1.60;;;;;;;;;;5044187;28;58589;-77
2023/09/17 04:27:15;;;;;;;2.10;2.00;;;;;;;;;;5041410;28;58417;-77
2023/09/17 04:29:40;;;;;;;2.22;2.03;;;;;;;;;;5040420;28;58450;-78
2023/09/17 04:32:05;;;;;;;2.88;2.45;;;;;;;;;;5038218;28;59476;-77
2023/09/17 04:34:30;;;;;;;2.00;1.90;;;;;;;;;;5043112;28;58992;-77
2023/09/17 04:36:58;;;;;;;2.10;1.90;;;;;;;;;;5042156;28;59383;-77
2023/09/17 04:39:24;;;;;;;;;;;;;;;;;;5042141;28;59434;-77
2023/09/17 04:41:50;;;;;;;1.83;1.73;;;;;;;;;;5043064;28;58998;-77
2023/09/17 04:44:15;;;;;;;1.77;1.67;;;;;;;;;;5040182;28;59444;-77
2023/09/17 04:46:40;;;;;;;2.53;2.33;;;;;;;;;;5041909;28;59274;-77
2023/09/17 04:49:06;;;;;;;2.00;1.80;;;;;;;;;;5043529;28;58320;-77
2023/09/17 04:51:32;;;;;;;2.10;2.00;;;;;;;;;;5056329;27;59575;-77
2023/09/17 04:53:57;;;;;;;2.43;2.23;;;;;;;;;;5044161;28;58488;-77
2023/09/17 04:56:22;;;;;;;1.83;1.73;;;;;;;;;;5041710;28;58477;-73
2023/09/17 04:58:47;;;;;;;1.90;1.80;;;;;;;;;;5042281;28;58642;-73
2023/09/17 05:01:12;;;;;;;1.63;1.53;;;;;;;;;;5041557;28;58450;-72
2023/09/17 05:03:38;;;;;;;1.90;1.80;;;;;;;;;;5058771;27;60207;-75
2023/09/17 05:06:03;;;;;;;2.80;2.50;;;;;;;;;;5043396;28;59156;-74
2023/09/17 05:08:28;;;;;;;1.80;1.70;;;;;;;;;;5045776;28;58439;-73
2023/09/17 05:10:53;;;;;;;2.60;2.40;;;;;;;;;;5044310;28;58892;-73
2023/09/17 05:13:18;;;;;;;2.00;1.80;;;;;;;;;;5046128;28;58598;-73
2023/09/17 05:15:44;;;;;;;1.90;1.80;;;;;;;;;;5043875;28;58490;-73
2023/09/17 05:18:09;;;;;;;1.50;1.40;;;;;;;;;;5043040;28;59991;-72
2023/09/17 05:20:40;;;;;;;2.63;2.43;;;;;;;;;;5044439;28;58635;-73
2023/09/17 05:23:05;;;;;;;2.17;1.98;;;;;;;;;;5043632;28;58708;-73
2023/09/17 05:25:31;;;;;;;2.20;2.10;;;;;;;;;;5043641;28;58453;-72
2023/09/17 05:27:56;;;;;;;2.63;1.83;;;;;;;;;;5059599;27;58836;-75
2023/09/17 05:30:21;;;;;;;2.40;2.13;;;;;;;;;;5042668;28;59145;-73
2023/09/17 05:32:46;;;;;;;2.13;1.92;;;;;;;;;;5047814;28;58352;-73
2023/09/17 05:35:12;;;;;;;1.87;1.73;;;;;;;;;;5044237;28;58777;-72
2023/09/17 05:37:38;;;;;;;2.10;1.90;;;;;;;;;;5047968;28;58901;-73
2023/09/17 05:40:04;;;;;;;1.85;1.75;;;;;;;;;;5045319;28;58514;-73
2023/09/17 05:42:31;;;;;;;1.65;1.55;;;;;;;;;;5045385;28;58321;-73
2023/09/17 05:44:56;;;;;;;2.10;1.88;;;;;;;;;;5044294;28;59040;-72
2023/09/17 05:47:21;;;;;;;2.57;2.37;;;;;;;;;;5048998;28;58377;-73
2023/09/17 05:49:46;;;;;;;2.70;2.43;;;;;;;;;;5045920;28;58596;-75
2023/09/17 05:52:11;;;;;;;2.63;2.42;;;;;;;;;;5043540;28;61211;-75
2023/09/17 05:54:36;;;;;;;2.60;2.40;;;;;;;;;;5031532;28;58528;-74
2023/09/17 05:57:02;;;;;;;2.50;2.00;;;;;;;;;;5023940;28;59129;-72
2023/09/17 05:59:27;;;;;;;2.57;2.13;;;;;;;;;;5026104;28;60775;-74
2023/09/17 06:01:52;;;;;;;2.33;2.13;;;;;;;;;;5046047;28;58375;-73
2023/09/17 06:04:17;;;;;;;2.70;2.33;;;;;;;;;;5042624;28;58650;-74
2023/09/17 06:06:42;;;;;;;2.73;2.50;;;;;;;;;;5037748;28;58564;-78
2023/09/17 06:09:08;;;;;;;2.30;2.10;;;;;;;;;;5042222;28;59610;-77
2023/09/17 06:11:33;;;;;;;2.35;2.15;;;;;;;;;;5041811;28;58759;-77
2023/09/17 06:13:58;;;;;;;2.40;2.07;;;;;;;;;;5044399;27;58573;-77
2023/09/17 06:16:24;;;;;;;3.87;2.63;;;;;;;;;;5060846;27;62062;-77
2023/09/17 06:18:49;;;;;;;2.60;2.40;;;;;;;;;;5044143;28;58571;-77
2023/09/17 06:21:14;;;;;;;2.95;2.40;;;;;;;;;;5044156;28;58481;-77
2023/09/17 06:23:39;;;;;;;2.43;2.23;;;;;;;;;;5044919;28;58582;-77
2023/09/17 06:26:07;;;;;;;2.13;1.92;;;;;;;;;;5043626;28;58407;-77
2023/09/17 06:28:32;;;;;;;1.92;1.83;;;;;;;;;;5045120;28;59314;-77
2023/09/17 06:30:57;;;;;;;2.60;2.40;;;;;;;;;;5042857;28;58409;-77
2023/09/17 06:33:22;;;;;;;2.60;2.40;;;;;;;;;;5044903;28;58622;-77
2023/09/17 06:35:47;;;;;;;3.93;2.23;;;;;;;;;;5041273;28;59719;-77
2023/09/17 06:38:12;;;;;;;2.10;1.90;;;;;;;;;;5044501;28;58643;-76
2023/09/17 06:40:38;;;;;;;2.10;1.90;;;;;;;;;;5044261;28;58626;-77
2023/09/17 06:43:03;;;;;;;2.05;1.85;;;;;;;;;;5044042;27;58569;-77
2023/09/17 06:45:28;;;;;;;2.47;2.30;;;;;;;;;;5042188;27;58729;-77
2023/09/17 06:47:53;;;;;;;3.60;2.17;;;;;;;;;;5048008;27;59630;-77
2023/09/17 06:50:18;;;;;;;3.63;2.50;;;;;;;;;;5043764;28;59581;-76
2023/09/17 06:52:44;;;;;;;1.88;1.77;;;;;;;;;;5046473;28;58443;-77
2023/09/17 06:55:09;;;;;;;3.53;2.28;;;;;;;;;;5044505;28;59132;-77
2023/09/17 06:57:34;;;;;;;2.78;2.53;;;;;;;;;;5041425;28;58555;-77
2023/09/17 06:59:59;;;;;;;3.13;2.87;;;;;;;;;;5043285;28;58347;-77
2023/09/17 07:02:24;;;;;;;1.88;1.77;;;;;;;;;;5046090;28;58539;-77
2023/09/17 07:04:50;;;;;;;2.63;1.92;;;;;;;;;;5043008;28;59049;-77
2023/09/17 07:07:15;;;;;;;2.97;2.78;;;;;;;;;;5043979;28;58383;-77
2023/09/17 07:09:40;;;;;;;2.60;2.20;;;;;;;;;;5043424;28;59199;-77
2023/09/17 07:12:05;;;;;;;2.80;2.53;;;;;;;;;;5042346;27;58537;-77
2023/09/17 07:14:30;;;;;;;2.72;2.53;;;;;;;;;;5044167;28;58801;-77
2023/09/17 07:16:56;;;;;;;2.53;2.30;;;;;;;;;;5045150;27;58369;-76
2023/09/17 07:19:21;;;;;;;2.15;2.00;;;;;;;;;;5042334;28;58531;-77
2023/09/17 07:21:47;;;;;;;2.40;2.20;;;;;;;;;;5045874;27;58750;-77
2023/09/17 07:24:12;;;;;;;2.57;2.20;;;;;;;;;;5041776;28;58820;-77
2023/09/17 07:26:37;;;;;;;2.17;2.07;;;;;;;;;;5041982;28;58780;-77
2023/09/17 07:29:03;;;;;;;2.60;2.40;;;;;;;;;;5044014;28;58789;-76
2023/09/17 07:31:28;;;;;;;2.03;1.90;;;;;;;;;;5045289;28;58406;-77
2023/09/17 07:33:53;;;;;;;2.73;2.53;;;;;;;;;;5044480;28;60663;-77
2023/09/17 07:36:19;;;;;;;3.07;2.57;;;;;;;;;;5044615;28;59791;-77
2023/09/17 07:38:44;;;;;;;2.83;2.30;;;;;;;;;;5041878;27;58599;-77
2023/09/17 07:41:09;;;;;;;2.90;2.60;;;;;;;;;;5043600;28;58613;-77
2023/09/17 07:43:34;;;;;;;2.17;2.08;;;;;;;;;;5042175;28;60400;-77
2023/09/17 07:45:59;;;;;;;2.43;2.13;;;;;;;;;;5041388;27;58476;-77
2023/09/17 07:48:25;;;;;;;2.77;2.27;;;;;;;;;;5036624;28;59945;-78
2023/09/17 07:51:00;;;;;;;2.57;2.37;;;;;;;;;;5043995;28;58510;-77
2023/09/17 07:53:25;;;;;;;3.60;3.30;;;;;;;;;;5042951;28;58561;-76
2023/09/17 07:55:51;;;;;;;3.78;2.35;;;;;;;;;;5040247;28;59066;-77
2023/09/17 07:58:16;;;;;;;2.70;2.50;;;;;;;;;;5043093;28;58502;-77
2023/09/17 08:00:45;;;;;;;2.17;1.97;;;;;;;;;;5041255;28;59446;-77
2023/09/17 08:03:10;;;;;;;2.42;2.22;;;;;;;;;;5040695;27;60643;-77
2023/09/17 08:05:35;;;;;;;2.47;2.23;;;;;;;;;;5042687;28;58341;-77
2023/09/17 08:08:01;;;;;;;17.17;3.20;;;;;;;;;;5040864;27;59478;-77
2023/09/17 08:10:26;;;;;;;2.53;2.07;;;;;;;;;;5043746;28;59085;-77
2023/09/17 08:12:51;;;;;;;2.28;2.08;;;;;;;;;;5043142;27;58409;-77
2023/09/17 08:15:17;;;;;;;3.53;1.90;;;;;;;;;;5040394;28;59761;-73
2023/09/17 08:17:43;;;;;;;2.75;2.55;;;;;;;;;;5037923;27;58492;-73
2023/09/17 08:20:09;;;;;;;10.18;2.50;;;;;;;;;;5042220;28;58554;-73
2023/09/17 08:22:35;;;;;;;4.32;2.88;;;;;;;;;;5041982;27;58564;-72
2023/09/17 08:25:00;;;;;;;2.50;2.30;;;;;;;;;;5040879;28;58583;-72
2023/09/17 08:27:25;;;;;;;2.53;2.33;;;;;;;;;;5041056;28;60123;-77
2023/09/17 08:29:50;;;;;;;2.20;2.00;;;;;;;;;;5041386;28;58829;-77
2023/09/17 08:32:15;;;;;;;3.80;2.70;;;;;;;;;;5042370;28;58396;-77
2023/09/17 08:34:41;;;;;;;5.43;2.60;;;;;;;;;;5042461;28;60211;-77
2023/09/17 08:37:06;;;;;;;3.63;2.80;;;;;;;;;;5041881;28;58310;-77
2023/09/17 08:39:32;;;;;;;2.55;2.35;;;;;;;;;;5043262;27;60199;-77
2023/09/17 08:42:01;;;;;;;3.30;2.97;;;;;;;;;;5044203;28;58703;-77
2023/09/17 08:44:27;;;;;;;2.55;2.28;;;;;;;;;;5045686;28;58339;-77
2023/09/17 08:46:54;;;;;;;2.50;2.10;;;;;;;;;;5044792;28;59556;-76
2023/09/17 08:49:19;;;;;;;2.83;2.63;;;;;;;;;;5047172;28;60560;-77
2023/09/17 08:51:46;;;;;;;3.08;2.30;;;;;;;;;;5045101;28;58779;-77
2023/09/17 08:54:21;;;;;;;2.75;2.55;;;;;;;;;;5046829;27;60199;-77
2023/09/17 08:56:47;;;;;;;2.90;2.67;;;;;;;;;;5043497;28;58524;-77
2023/09/17 08:59:15;;;;;;;6.65;2.22;;;;;;;;;;5047405;28;59773;-76
2023/09/17 09:01:42;;;;;;;3.17;2.97;;;;;;;;;;5046350;28;58519;-77
2023/09/17 09:04:08;;;;;;;3.30;2.75;;;;;;;;;;5046230;28;58462;-76
2023/09/17 09:06:34;;;;;;;6.88;2.63;;;;;;;;;;5046584;27;59802;-77
2023/09/17 09:08:59;;;;;;;2.75;2.15;;;;;;;;;;5044903;27;59830;-77
2023/09/17 09:11:25;;;;;;;2.47;2.30;;;;;;;;;;5077346;27;58393;-76
2023/09/17 09:13:53;;;;;;;2.63;2.43;;;;;;;;;;5047937;28;58957;-77
2023/09/17 09:16:19;;;;;;;3.35;2.45;;;;;;;;;;5046218;28;63427;-81
2023/09/17 09:18:44;;;;;;;2.70;2.50;;;;;;;;;;5045339;28;58914;-78
2023/09/17 09:21:10;;;;;;;2.87;2.67;;;;;;;;;;5039954;28;60519;-77
2023/09/17 09:23:36;;;;;;;2.72;2.53;;;;;;;;;;5036523;28;58405;-77
2023/09/17 09:26:01;;;;;;;4.87;2.93;;;;;;;;;;5044688;28;59447;-73
2023/09/17 09:28:29;;;;;;;3.80;2.67;;;;;;;;;;5046131;28;58558;-74
2023/09/17 09:30:54;;;;;;;1.73;1.63;;;;;;;;;;5045651;28;58591;-77
2023/09/17 09:33:21;;;;;;;3.00;2.70;;;;;;;;;;5046061;28;58727;-77
2023/09/17 09:35:47;;;;;;;2.20;1.85;;;;;;;;;;5042982;27;60248;-68
2023/09/17 09:38:12;;;;;;;2.75;2.00;;;;;;;;;;5042651;28;58537;-69
2023/09/17 09:40:38;;;;;;;2.43;2.23;;;;;;;;;;5043988;28;58593;-68
2023/09/17 09:43:03;;;;;;;3.85;2.55;;;;;;;;;;5046840;28;58413;-68
2023/09/17 09:45:28;;;;;;;2.78;2.58;;;;;;;;;;5043766;27;59301;-68
2023/09/17 09:47:54;;;;;;;2.42;2.22;;;;;;;;;;5043829;28;58389;-68
2023/09/17 09:50:26;;;;;;;2.33;2.20;;;;;;;;;;5045372;28;58508;-68
2023/09/17 09:52:52;;;;;;;2.85;2.50;;;;;;;;;;5044847;28;61120;-68
2023/09/17 09:55:17;;;;;;;3.05;2.28;;;;;;;;;;5024525;28;62779;-67
2023/09/17 09:57:42;;;;;;;3.38;3.08;;;;;;;;;;5024796;28;58416;-68
2023/09/17 10:00:12;;;;;;;2.87;2.67;;;;;;;;;;5028713;28;60021;-67
2023/09/17 10:02:37;;;;;;;2.28;2.08;;;;;;;;;;5026767;27;58480;-67
2023/09/17 10:05:04;;;;;;;3.23;2.63;;;;;;;;;;5044681;28;59783;-69
2023/09/17 10:07:29;;;;;;;2.22;2.03;;;;;;;;;;5044414;28;58555;-68
2023/09/17 10:09:56;;;;;;;3.57;2.43;;;;;;;;;;5027861;27;58543;-69
2023/09/17 10:12:22;;;;;;;2.50;2.15;;;;;;;;;;5036494;28;59365;-68
2023/09/17 10:14:48;;;;;;;2.00;1.83;;;;;;;;;;5042605;28;59198;-68
2023/09/17 10:17:16;;;;;;;3.60;2.17;;;;;;;;;;5043376;28;58471;-66
2023/09/17 10:19:42;;;;;;;2.25;1.85;;;;;;;;;;5044266;28;59648;-69
2023/09/17 10:22:08;;;;;;;1.90;1.80;;;;;;;;;;5042327;28;58417;-70
2023/09/17 10:24:36;;;;;;;2.55;2.35;;;;;;;;;;5043064;28;59046;-72
2023/09/17 10:27:01;;;;;;;4.05;2.22;;;;;;;;;;5038339;28;58704;-68
2023/09/17 10:29:27;;;;;;;2.03;1.80;;;;;;;;;;5043978;28;59761;-71
2023/09/17 10:31:53;;;;;;;2.03;1.88;;;;;;;;;;5044590;28;59883;-75
2023/09/17 10:34:18;;;;;;;2.53;1.95;;;;;;;;;;5043131;28;58697;-72
2023/09/17 10:36:45;;;;;;;1.90;1.65;;;;;;;;;;5044293;28;58631;-77
2023/09/17 10:39:13;;;;;;;3.95;1.98;;;;;;;;;;5045341;28;59670;-76
2023/09/17 10:41:38;;;;;;;1.97;1.77;;;;;;;;;;5044748;28;58492;-77
2023/09/17 10:44:04;;;;;;;2.15;1.75;;;;;;;;;;5045916;28;58628;-80
2023/09/17 10:46:30;;;;;;;2.25;1.88;;;;;;;;;;5042834;28;58521;-74
2023/09/17 10:48:56;;;;;;;3.75;2.22;;;;;;;;;;5043743;28;58498;-73
2023/09/17 10:51:21;;;;;;;2.53;2.30;;;;;;;;;;5043763;28;58689;-72
2023/09/17 10:53:46;;;;;;;2.55;2.35;;;;;;;;;;5043654;28;59046;-73
2023/09/17 10:56:13;;;;;;;3.70;1.90;;;;;;;;;;5058854;27;58678;-75
2023/09/17 10:58:41;;;;;;;3.45;1.77;;;;;;;;;;5045842;28;58824;-80
2023/09/17 11:01:08;;;;;;;2.40;2.20;;;;;;;;;;5041113;28;59699;-69
2023/09/17 11:03:35;;;;;;;3.50;1.95;;;;;;;;;;5027389;28;58451;-74
2023/09/17 11:06:01;;;;;;;2.17;1.90;;;;;;;;;;5058015;27;59008;-75
2023/09/17 11:08:27;;;;;;;2.53;1.52;;;;;;;;;;5044239;28;58840;-76
2023/09/17 11:10:52;;;;;;;2.00;1.85;;;;;;;;;;5058442;27;60578;-76
2023/09/17 11:13:19;;;;;;;4.10;1.90;;;;;;;;;;5042717;28;58726;-77
2023/09/17 11:15:44;;;;;;;5.00;2.35;;;;;;;;;;5042873;28;58530;-70
2023/09/17 11:18:09;;;;;;;2.17;1.70;;;;;;;;;;5045351;28;59590;-78
2023/09/17 11:20:38;;;;;;;3.38;1.52;;;;;;;;;;5041751;28;58541;-68
2023/09/17 11:23:03;;;;;;;1.98;1.70;;;;;;;;;;5042538;28;58378;-69
2023/09/17 11:25:34;;;;;;;3.88;1.90;;;;;;;;;;5043449;28;58890;-69
2023/09/17 11:28:07;;;;;;;2.88;2.00;;;;;;;;;;5074449;27;58507;-70
2023/09/17 11:30:32;;;;;;;2.92;1.50;;;;;;;;;;5043876;28;58798;-75
2023/09/17 11:32:57;;;;;;;1.77;1.60;;;;;;;;;;5057375;27;60496;-76
2023/09/17 11:35:23;;;;;;;5.10;1.80;;;;;;;;;;5042700;27;58343;-73
2023/09/17 11:37:50;;;;;;;3.08;2.20;;;;;;;;;;5045218;28;58508;-72
2023/09/17 11:40:16;;;;;;;2.72;1.92;;;;;;;;;;5042997;28;58400;-70
2023/09/17 11:42:41;;;;;;;2.10;1.75;;;;;;;;;;5042861;28;58694;-73
2023/09/17 11:45:08;;;;;;;1.53;1.43;;;;;;;;;;5042691;28;60153;-73
2023/09/17 11:47:34;;;;;;;1.67;1.58;;;;;;;;;;5043627;28;59219;-78
2023/09/17 11:49:59;;;;;;;2.15;1.42;;;;;;;;;;5043805;28;58642;-75
2023/09/17 11:52:25;;;;;;;1.50;1.27;;;;;;;;;;5043718;28;58469;-72
2023/09/17 11:54:54;;;;;;;2.20;2.00;;;;;;;;;;5042925;28;58805;-74
2023/09/17 11:57:23;;;;;;;1.70;1.60;;;;;;;;;;5042638;28;58560;-77
2023/09/17 11:59:48;;;;;;;2.05;1.95;;;;;;;;;;5036308;28;59631;-73
2023/09/17 12:02:15;;;;;;;2.80;1.40;;;;;;;;;;5038981;28;58342;-75
2023/09/17 12:04:41;;;;;;;2.17;1.88;;;;;;;;;;5043480;28;58925;-78
2023/09/17 12:07:10;;;;;;;2.57;1.63;;;;;;;;;;5035895;28;59239;-79
2023/09/17 12:12:13;;;;;;;3.35;2.45;;;;;;;;;;5038067;27;58632;-76
2023/09/17 12:14:39;;;;;;;3.30;2.23;;;;;;;;;;5039516;28;58572;-77
2023/09/17 12:17:04;;;;;;;2.67;1.70;;;;;;;;;;5040279;28;58487;-77
2023/09/17 12:19:30;;;;;;;1.40;1.23;;;;;;;;;;5042221;28;58561;-78
2023/09/17 12:21:58;;;;;;;4.75;2.15;;;;;;;;;;5039998;28;58165;-74
2023/09/17 12:24:41;;;;;;;3.15;1.80;;;;;;;;;;5025894;28;59844;-75
2023/09/17 12:27:24;;;;;;;17.25;2.65;;;;;;;;;;5029057;28;59269;-78
2023/09/17 12:29:49;;;;;;;2.45;2.10;;;;;;;;;;5038525;28;58373;-78
2023/09/17 12:32:16;;;;;;;3.93;1.57;;;;;;;;;;5037524;28;59484;-77
2023/09/17 12:34:42;;;;;;;2.70;2.33;;;;;;;;;;5039040;28;58230;-69
2023/09/17 12:37:09;;;;;;;3.15;1.80;;;;;;;;;;5039105;27;59400;-80
2023/09/17 12:39:34;;;;;;;5.87;1.40;;;;;;;;;;5038831;27;59075;-71
2023/09/17 12:42:00;;;;;;;2.22;1.83;;;;;;;;;;5040678;28;58923;-71
2023/09/17 12:44:26;;;;;;;2.33;1.50;;;;;;;;;;5040559;28;58498;-86
2023/09/17 12:46:51;;;;;;;2.28;1.85;;;;;;;;;;5040371;28;60209;-73
2023/09/17 12:49:17;;;;;;;3.78;1.73;;;;;;;;;;5039493;28;58461;-73
2023/09/17 12:51:42;;;;;;;2.15;1.98;;;;;;;;;;5038977;28;59230;-78
2023/09/17 12:54:08;;;;;;;1.73;1.63;;;;;;;;;;5040151;28;58793;-74
2023/09/17 12:56:35;;;;;;;1.42;1.27;;;;;;;;;;5040015;28;59559;-78
2023/09/17 12:59:01;;;;;;;1.77;1.42;;;;;;;;;;5037315;28;59060;-74
2023/09/17 13:01:27;;;;;;;2.42;1.58;;;;;;;;;;5028369;28;58534;-76
2023/09/17 13:03:54;;;;;;;2.40;1.67;;;;;;;;;;5013023;28;59541;-75
2023/09/17 13:06:19;;;;;;;2.00;1.40;;;;;;;;;;5012064;28;59252;-75
2023/09/17 13:08:46;;;;;;;1.83;1.65;;;;;;;;;;5006338;28;58455;-75
2023/09/17 13:11:11;;;;;;;1.50;1.40;;;;;;;;;;5009259;28;59439;-73
2023/09/17 13:13:37;;;;;;;1.83;1.63;;;;;;;;;;5016764;28;58421;-74
2023/09/17 13:16:02;;;;;;;2.53;1.10;;;;;;;;;;5011064;28;58847;-71
2023/09/17 13:18:27;;;;;;;1.90;1.60;;;;;;;;;;5014885;28;58558;-71
2023/09/17 13:20:52;;;;;;;2.77;1.27;;;;;;;;;;5022151;28;58658;-72
2023/09/17 13:23:17;;;;;;;1.85;1.70;;;;;;;;;;5026251;28;61085;-71
2023/09/17 13:25:43;;;;;;;1.40;1.30;;;;;;;;;;5030734;28;58603;-73
2023/09/17 13:28:15;;;;;;;1.20;1.10;;;;;;;;;;5042843;28;58410;-73
2023/09/17 13:30:41;;;;;;;1.30;1.20;;;;;;;;;;5040979;28;58856;-77
2023/09/17 13:33:06;;;;;;;1.80;1.38;;;;;;;;;;5041092;27;58926;-74
2023/09/17 13:35:31;;;;;;;1.07;1.07;;;;;;;;;;5041933;28;59023;-75
2023/09/17 13:37:57;;;;;;;1.95;1.38;;;;;;;;;;5040641;28;59166;-71
2023/09/17 13:40:23;;;;;;;3.23;1.47;;;;;;;;;;5041505;28;58462;-75
2023/09/17 13:42:48;;;;;;;1.20;1.10;;;;;;;;;;5040385;28;59612;-74
2023/09/17 13:45:17;;;;;;;1.13;1.07;;;;;;;;;;5040468;28;59404;-74
2023/09/17 13:47:42;;;;;;;1.35;1.27;;;;;;;;;;5041463;28;58697;-74
2023/09/17 13:50:07;;;;;;;1.97;1.40;;;;;;;;;;5042497;28;58591;-75
2023/09/17 13:52:33;;;;;;;1.52;1.40;;;;;;;;;;5041777;28;58874;-71
2023/09/17 13:54:58;;;;;;;3.23;1.47;;;;;;;;;;5043375;27;58370;-72
2023/09/17 13:57:24;;;;;;;4.15;2.03;;;;;;;;;;5039501;28;59466;-77
2023/09/17 13:59:49;;;;;;;1.65;1.55;;;;;;;;;;5040191;28;58448;-72
2023/09/17 14:02:16;;;;;;;1.83;1.33;;;;;;;;;;5042661;28;58524;-83
2023/09/17 14:04:41;;;;;;;2.15;1.23;;;;;;;;;;5042540;28;58706;-75
2023/09/17 14:07:06;;;;;;;2.50;2.30;;;;;;;;;;5040760;28;58294;-74
2023/09/17 14:09:31;;;;;;;2.00;1.80;;;;;;;;;;5034316;28;59747;-76
2023/09/17 14:11:57;;;;;;;1.95;1.60;;;;;;;;;;5024971;28;58863;-74
2023/09/17 14:14:22;;;;;;;2.43;1.50;;;;;;;;;;5037965;28;58591;-77
2023/09/17 14:16:47;;;;;;;6.40;1.90;;;;;;;;;;5015482;28;58668;-74
2023/09/17 14:19:17;;;;;;;1.65;1.40;;;;;;;;;;5015986;28;59448;-78
2023/09/17 14:21:42;;;;;;;3.42;2.13;;;;;;;;;;5036507;28;59655;-77
2023/09/17 14:24:07;;;;;;;1.63;1.52;;;;;;;;;;5040417;28;58503;-78
2023/09/17 14:26:33;;;;;;;2.50;1.50;;;;;;;;;;5041683;28;58379;-80
2023/09/17 14:28:58;;;;;;;3.00;1.80;;;;;;;;;;5041154;28;60222;-79
2023/09/17 14:31:23;;;;;;;5.20;2.50;;;;;;;;;;5040766;28;58942;-80
2023/09/17 14:33:48;;;;;;;5.20;1.65;;;;;;;;;;5042576;28;58388;-78
2023/09/17 14:36:13;;;;;;;5.27;1.70;;;;;;;;;;5040364;27;59794;-77
2023/09/17 14:38:39;;;;;;;9.05;2.00;;;;;;;;;;5038683;28;58451;-72